Lorah, Iowa
Current Conditions -  °F | °C
As of 12:15 PM on Sunday 25 Jan 2015 (Local Time) from KAIO Reporting Station
Overcast Overcast  
Wind Chill: 27°   Ceiling: 1100
Heat Index: 36°   Visibility: 10mi
Dew Point: 34°   Wind: 14mph
Humidity: 93%   Direction: 20°NNE
Pressure: 29.93"   Gusts: 23mph
Location:  41.4037°N, 95.0217°W
Report Text: KAIO 251815Z AUTO 02012G20KT 10SM OVC011 02/01 A2993 RMK AO2
Loading
Personal Weather Stations






























Interactive Weather Map New forecast layout! Learn more

10-Day Weather Forecast

Advertisements
Track Severe Weather on mobile